createdAt,value
2019-01-17T00:00:01.530Z,99482.33
2019-01-17T00:02:48.327Z,99512.81
2019-01-17T00:05:25.061Z,99482.79
2019-01-17T00:08:11.361Z,99487.91
2019-01-17T00:10:55.105Z,99508.94
2019-01-17T00:13:43.064Z,99500.35
2019-01-17T00:16:29.660Z,99484.90
2019-01-17T00:19:29.610Z,99472.44
2019-01-17T00:22:35.975Z,99474.55
2019-01-17T00:25:25.558Z,99477.98
2019-01-17T00:28:13.857Z,99453.08
2019-01-17T00:30:56.518Z,99475.83
2019-01-17T00:33:44.455Z,99442.36
2019-01-17T00:36:44.476Z,99475.41
2019-01-17T00:39:26.737Z,99442.39
2019-01-17T00:42:03.202Z,99455.23
2019-01-17T00:44:51.183Z,99462.10
2019-01-17T00:47:30.675Z,99441.96
2019-01-17T00:50:25.398Z,99436.77
2019-01-17T00:53:11.849Z,99448.83
2019-01-17T00:56:02.481Z,99436.81
2019-01-17T00:58:53.056Z,99432.52
2019-01-17T01:01:39.934Z,99442.00
2019-01-17T01:04:35.808Z,99438.56
2019-01-17T01:07:15.607Z,99429.12
2019-01-17T01:10:03.957Z,99432.98
2019-01-17T01:12:48.383Z,99413.23
2019-01-17T01:15:51.561Z,99424.83
2019-01-17T01:18:35.857Z,99408.50
2019-01-17T01:21:23.795Z,99434.27
2019-01-17T01:24:15.420Z,99417.09
2019-01-17T01:27:15.445Z,99407.22
2019-01-17T01:30:12.390Z,99407.22
2019-01-17T01:33:00.944Z,99402.95
2019-01-17T01:36:07.415Z,99400.34
2019-01-17T01:39:01.089Z,99399.49
2019-01-17T01:41:48.755Z,99397.77
2019-01-17T01:44:36.756Z,99422.70
2019-01-17T01:47:17.835Z,99408.97
2019-01-17T01:50:04.583Z,99399.48
2019-01-17T01:52:56.451Z,99396.91
2019-01-17T01:55:25.667Z,99405.94
2019-01-17T01:57:54.566Z,99397.78
2019-01-17T02:00:23.481Z,99402.93
2019-01-17T02:02:52.757Z,99398.20
2019-01-17T02:05:22.058Z,99403.36
2019-01-17T02:07:51.055Z,99404.22
2019-01-17T02:10:19.740Z,99417.53
2019-01-17T02:12:48.750Z,99394.77
2019-01-17T02:15:17.387Z,99387.47
2019-01-17T02:17:46.014Z,99415.35
2019-01-17T02:20:15.000Z,99386.98
2019-01-17T02:22:43.671Z,99397.72
2019-01-17T02:25:14.315Z,99396.43
2019-01-17T02:27:43.307Z,99376.25
2019-01-17T02:30:13.644Z,99377.97
2019-01-17T02:32:42.629Z,99396.43
2019-01-17T02:35:11.727Z,99377.55
2019-01-17T02:37:40.719Z,99398.18
2019-01-17T02:40:11.399Z,99383.58
2019-01-17T02:42:40.200Z,99420.93
2019-01-17T02:45:12.620Z,99385.73
2019-01-17T02:47:41.597Z,99383.98
2019-01-17T02:50:11.216Z,99390.84
2019-01-17T02:52:40.620Z,99386.55
2019-01-17T02:55:09.904Z,99395.14
2019-01-17T02:57:38.816Z,99380.12
2019-01-17T03:00:13.956Z,99364.66
2019-01-17T03:02:42.577Z,99387.84
2019-01-17T03:05:13.289Z,99380.98
2019-01-17T03:07:42.262Z,99378.41
2019-01-17T03:10:16.476Z,99370.25
2019-01-17T03:12:45.596Z,99369.81
2019-01-17T03:15:14.316Z,99367.67
2019-01-17T03:17:42.973Z,99363.81
2019-01-17T03:20:13.071Z,99365.95
2019-01-17T03:22:42.162Z,99362.95
2019-01-17T03:25:11.070Z,99352.65
2019-01-17T03:27:40.047Z,99356.94
2019-01-17T03:30:12.972Z,99360.37
2019-01-17T03:32:41.792Z,99353.94
2019-01-17T03:35:10.870Z,99368.95
2019-01-17T03:37:39.557Z,99354.83
2019-01-17T03:40:09.997Z,99366.41
2019-01-17T03:42:38.722Z,99373.70
2019-01-17T03:45:08.647Z,99372.00
2019-01-17T03:47:37.676Z,99374.99
2019-01-17T03:50:08.168Z,99387.88
2019-01-17T03:52:37.156Z,99394.77
2019-01-17T03:55:06.563Z,99382.32
2019-01-17T03:57:35.555Z,99375.85
2019-01-17T04:00:05.471Z,99374.59
2019-01-17T04:02:34.674Z,99381.89
2019-01-17T04:05:03.295Z,99394.34
2019-01-17T04:07:32.345Z,99397.34
2019-01-17T04:10:01.240Z,99381.89
2019-01-17T04:12:30.251Z,99375.87
2019-01-17T04:14:58.973Z,99385.77
2019-01-17T04:17:28.221Z,99379.30
2019-01-17T04:19:56.844Z,99374.58
2019-01-17T04:22:25.527Z,99378.02
2019-01-17T04:24:57.428Z,99395.62
2019-01-17T04:27:25.828Z,99376.76
2019-01-17T04:29:54.470Z,99377.61
2019-01-17T04:32:23.086Z,99367.30
2019-01-17T04:34:51.710Z,99371.60
2019-01-17T04:37:20.671Z,99378.05
2019-01-17T04:39:49.299Z,99381.05
2019-01-17T04:42:18.269Z,99370.31
2019-01-17T04:44:46.908Z,99365.59
2019-01-17T04:47:15.833Z,99366.45
2019-01-17T04:49:45.028Z,99372.88
2019-01-17T04:52:13.950Z,99369.04
2019-01-17T04:54:42.571Z,99374.59
2019-01-17T04:57:11.196Z,99381.47
2019-01-17T04:59:39.820Z,99378.90
2019-01-17T05:02:08.429Z,99386.20
2019-01-17T05:04:37.452Z,99383.19
2019-01-17T05:07:06.453Z,99392.63
2019-01-17T05:09:35.399Z,99388.36
2019-01-17T05:12:04.435Z,99393.94
2019-01-17T05:14:33.430Z,99396.09
2019-01-17T05:17:02.330Z,99390.94
2019-01-17T05:19:30.929Z,99393.94
2019-01-17T05:21:59.899Z,99396.09
2019-01-17T05:24:28.521Z,99402.95
2019-01-17T05:26:57.161Z,99402.11
2019-01-17T05:29:26.677Z,99396.09
2019-01-17T05:31:55.674Z,99399.97
2019-01-17T05:34:24.667Z,99393.94
2019-01-17T05:36:53.316Z,99390.08
2019-01-17T05:39:22.037Z,99402.53
2019-01-17T05:41:51.439Z,99396.52
2019-01-17T05:44:20.186Z,99387.48
2019-01-17T05:46:48.898Z,99392.20
2019-01-17T05:49:17.907Z,99401.23
2019-01-17T05:51:47.105Z,99392.19
2019-01-17T05:54:15.995Z,99395.20
2019-01-17T05:56:44.887Z,99386.18
2019-01-17T05:59:13.805Z,99399.92
2019-01-17T06:01:42.778Z,99393.91
2019-01-17T06:04:11.668Z,99402.06
2019-01-17T06:06:40.655Z,99402.09
2019-01-17T06:09:10.423Z,99402.09
2019-01-17T06:11:39.456Z,99419.25
2019-01-17T06:14:08.369Z,99439.42
2019-01-17T06:16:37.247Z,99420.13
2019-01-17T06:19:06.545Z,99433.45
2019-01-17T06:21:35.470Z,99424.42
2019-01-17T06:24:04.494Z,99426.56
2019-01-17T06:26:33.202Z,99444.61
2019-01-17T06:29:01.848Z,99420.98
2019-01-17T06:31:30.797Z,99427.00
2019-01-17T06:33:59.691Z,99414.97
2019-01-17T06:36:28.891Z,99420.53
2019-01-17T06:38:57.784Z,99436.84
2019-01-17T06:41:26.778Z,99424.86
2019-01-17T06:43:55.769Z,99446.72
2019-01-17T06:46:24.974Z,99438.11
2019-01-17T06:48:54.041Z,99429.52
2019-01-17T06:51:22.952Z,99433.34
2019-01-17T06:53:51.569Z,99465.09
2019-01-17T06:56:20.191Z,99441.92
2019-01-17T06:58:49.137Z,99437.63
2019-01-17T07:01:17.828Z,99443.22
2019-01-17T07:03:46.806Z,99449.69
2019-01-17T07:06:15.464Z,99445.80
2019-01-17T07:08:44.078Z,99451.84
2019-01-17T07:11:12.711Z,99454.88
2019-01-17T07:13:41.950Z,99459.56
2019-01-17T07:16:10.865Z,99466.87
2019-01-17T07:18:39.470Z,99467.34
2019-01-17T07:21:08.426Z,99473.34
2019-01-17T07:23:37.513Z,99471.20
2019-01-17T07:26:06.140Z,99463.94
2019-01-17T07:28:35.124Z,99474.67
2019-01-17T07:31:03.837Z,99471.20
2019-01-17T07:33:32.774Z,99489.27
2019-01-17T07:36:01.664Z,99478.08
2019-01-17T07:38:30.571Z,99479.83
2019-01-17T07:40:59.848Z,99486.66
2019-01-17T07:43:28.469Z,99480.72
2019-01-17T07:45:57.084Z,99472.98
2019-01-17T07:48:25.680Z,99484.13
2019-01-17T07:50:54.601Z,99489.30
2019-01-17T07:53:23.477Z,99486.76
2019-01-17T07:55:52.390Z,99483.29
2019-01-17T07:58:21.376Z,99484.17
2019-01-17T08:00:50.476Z,99481.11
2019-01-17T08:03:19.070Z,99498.72
2019-01-17T08:05:47.772Z,99490.56
2019-01-17T08:08:16.739Z,99484.09
2019-01-17T08:10:45.633Z,99472.92
2019-01-17T08:13:15.806Z,99477.68
2019-01-17T08:15:44.796Z,99479.79
2019-01-17T08:18:18.692Z,99490.56
2019-01-17T08:20:44.108Z,99493.96
2019-01-17T08:23:13.364Z,99489.70
2019-01-17T08:25:41.987Z,99496.96
2019-01-17T08:28:10.698Z,99507.70
2019-01-17T08:30:39.937Z,99506.45
2019-01-17T08:33:10.464Z,99505.55
2019-01-17T08:35:39.192Z,99494.82
2019-01-17T08:38:08.154Z,99487.52
2019-01-17T08:40:39.907Z,99500.87
2019-01-17T08:43:08.920Z,99492.70
2019-01-17T08:45:37.535Z,99502.16
2019-01-17T08:48:06.579Z,99516.77
2019-01-17T08:50:35.682Z,99505.16
2019-01-17T08:53:04.665Z,99500.88
2019-01-17T08:55:33.287Z,99500.48
2019-01-17T08:58:04.535Z,99508.20
2019-01-17T09:00:33.173Z,99509.06
2019-01-17T09:03:01.811Z,99512.08
2019-01-17T09:05:30.763Z,99516.41
2019-01-17T09:07:59.385Z,99518.52
2019-01-17T09:10:33.827Z,99510.36
2019-01-17T09:13:02.446Z,99510.78
2019-01-17T09:15:33.279Z,99507.34
2019-01-17T09:18:05.576Z,99503.91
2019-01-17T09:20:37.165Z,99525.82
2019-01-17T09:23:06.108Z,99512.94
2019-01-17T09:25:35.147Z,99514.22
2019-01-17T09:28:03.833Z,99508.64
2019-01-17T09:30:32.631Z,99501.77
2019-01-17T09:33:01.572Z,99515.11
2019-01-17T09:35:30.188Z,99504.38
2019-01-17T09:37:59.666Z,99506.52
2019-01-17T09:40:28.675Z,99506.52
2019-01-17T09:42:57.936Z,99508.66
2019-01-17T09:45:26.657Z,99521.13
2019-01-17T09:47:55.622Z,99508.67
2019-01-17T09:50:25.425Z,99485.03
2019-01-17T09:52:54.809Z,99510.84
2019-01-17T09:55:23.520Z,99508.23
2019-01-17T09:57:52.532Z,99515.11
2019-01-17T10:00:26.460Z,99505.23
2019-01-17T10:02:55.432Z,99490.65
2019-01-17T10:05:24.433Z,99502.25
2019-01-17T10:07:53.426Z,99514.68
2019-01-17T10:10:22.183Z,99531.90
2019-01-17T10:12:51.306Z,99511.24
2019-01-17T10:15:26.648Z,99501.78
2019-01-17T10:18:42.637Z,99505.26
2019-01-17T10:21:33.142Z,99512.53
2019-01-17T10:24:28.539Z,99487.20
2019-01-17T10:27:26.595Z,99484.63
2019-01-17T10:30:21.407Z,99476.91
2019-01-17T10:33:09.895Z,99493.67
2019-01-17T10:36:09.932Z,99494.09
2019-01-17T10:39:00.607Z,99471.31
2019-01-17T10:41:52.848Z,99515.15
2019-01-17T10:44:54.710Z,99485.94
2019-01-17T10:48:18.564Z,99468.30
2019-01-17T10:51:34.368Z,99477.33
2019-01-17T10:54:34.273Z,99478.19
2019-01-17T10:57:30.410Z,99510.44
2019-01-17T11:00:34.380Z,99459.27
2019-01-17T11:03:18.183Z,99445.00
2019-01-17T11:06:02.931Z,99456.22
2019-01-17T11:09:03.931Z,99438.14
2019-01-17T11:12:09.025Z,99432.30
2019-01-17T11:15:18.516Z,99444.12
2019-01-17T11:18:25.659Z,99444.12
2019-01-17T11:21:37.829Z,99442.88
2019-01-17T11:24:28.440Z,99434.29
2019-01-17T11:27:38.843Z,99418.32
2019-01-17T11:30:21.851Z,99419.42
2019-01-17T11:33:29.752Z,99407.97
2019-01-17T11:36:20.256Z,99407.97
2019-01-17T11:39:26.334Z,99452.73
2019-01-17T11:42:54.381Z,99411.05
2019-01-17T11:46:02.719Z,99406.77
2019-01-17T11:49:09.256Z,99423.89
2019-01-17T11:52:05.379Z,99441.44
2019-01-17T11:54:53.228Z,99441.44
2019-01-17T11:58:05.983Z,99394.84
2019-01-17T12:00:59.038Z,99394.84
2019-01-17T12:04:01.106Z,99399.96
2019-01-17T12:06:29.999Z,99392.85
2019-01-17T12:08:59.412Z,99418.80
2019-01-17T12:11:28.398Z,99418.80
2019-01-17T12:13:57.045Z,99443.34
2019-01-17T12:16:25.972Z,99386.11
2019-01-17T12:18:54.889Z,99400.70
2019-01-17T12:21:23.856Z,99414.48
2019-01-17T12:23:52.848Z,99399.02
2019-01-17T12:26:21.548Z,99401.16
2019-01-17T12:28:50.531Z,99393.00
2019-01-17T12:31:19.521Z,99388.68
2019-01-17T12:33:48.155Z,99419.27
2019-01-17T12:36:16.765Z,99395.59
2019-01-17T12:38:45.683Z,99386.12
2019-01-17T12:41:14.481Z,99381.80
2019-01-17T12:43:43.563Z,99393.88
2019-01-17T12:46:12.865Z,99393.44
2019-01-17T12:48:41.765Z,99399.47
2019-01-17T12:51:11.066Z,99385.26
2019-01-17T12:53:40.032Z,99395.58
2019-01-17T12:56:09.154Z,99381.80
2019-01-17T12:58:39.623Z,99374.02
2019-01-17T13:01:08.274Z,99374.02
2019-01-17T13:03:37.167Z,99382.24
2019-01-17T13:06:05.994Z,99382.24
2019-01-17T13:08:35.048Z,99379.22
2019-01-17T13:11:04.356Z,99379.62
2019-01-17T13:13:33.321Z,99368.00
2019-01-17T13:16:01.965Z,99368.00
2019-01-17T13:18:30.602Z,99373.64
2019-01-17T13:20:59.296Z,99363.55
2019-01-17T13:23:28.179Z,99382.88
2019-01-17T13:25:56.900Z,99371.28
2019-01-17T13:28:25.561Z,99365.16
2019-01-17T13:30:54.551Z,99384.63
2019-01-17T13:33:23.746Z,99356.72
2019-01-17T13:35:52.360Z,99352.42
2019-01-17T13:38:21.016Z,99362.34
2019-01-17T13:40:49.990Z,99362.34
2019-01-17T13:43:18.664Z,99353.19
2019-01-17T13:45:47.288Z,99348.51
2019-01-17T13:48:15.952Z,99358.97
2019-01-17T13:50:44.904Z,99358.97
2019-01-17T13:53:13.545Z,99365.02
2019-01-17T13:55:42.545Z,99377.03
2019-01-17T13:58:11.532Z,99352.58
2019-01-17T14:00:40.157Z,99352.58
2019-01-17T14:03:09.110Z,99372.75
2019-01-17T14:05:37.766Z,99380.51
2019-01-17T14:08:06.793Z,99371.05
2019-01-17T14:10:35.427Z,99380.58
2019-01-17T14:13:04.473Z,99372.38
2019-01-17T14:15:33.470Z,99378.00
2019-01-17T14:18:02.115Z,99382.28
2019-01-17T14:20:31.043Z,99384.42
2019-01-17T14:23:02.718Z,99398.64
2019-01-17T14:25:31.344Z,99390.03
2019-01-17T14:27:59.997Z,99396.06
2019-01-17T14:30:30.801Z,99399.08
2019-01-17T14:33:00.107Z,99398.22
2019-01-17T14:35:29.103Z,99403.80
2019-01-17T14:37:58.095Z,99416.26
2019-01-17T14:40:26.750Z,99416.26
2019-01-17T14:42:56.390Z,99421.43
2019-01-17T14:45:25.691Z,99426.61
2019-01-17T14:47:54.385Z,99410.25
2019-01-17T14:50:25.631Z,99422.28
2019-01-17T14:52:54.329Z,99426.58
2019-01-17T14:55:23.711Z,99423.59
2019-01-17T14:57:54.036Z,99430.89
2019-01-17T15:00:25.578Z,99437.77
2019-01-17T15:02:54.789Z,99435.20
2019-01-17T15:05:23.543Z,99439.48
2019-01-17T15:07:52.303Z,99435.63
2019-01-17T15:10:24.336Z,99445.53
2019-01-17T15:12:53.055Z,99445.53
2019-01-17T15:15:21.991Z,99452.39
2019-01-17T15:17:51.009Z,99449.38
2019-01-17T15:20:20.600Z,99441.19
2019-01-17T15:22:50.738Z,99460.98
2019-01-17T15:25:19.639Z,99440.36
2019-01-17T15:27:48.733Z,99442.09
2019-01-17T15:30:19.936Z,99447.23
2019-01-17T15:32:49.151Z,99455.41
2019-01-17T15:35:19.795Z,99462.30
2019-01-17T15:37:48.561Z,99454.97
2019-01-17T15:40:20.344Z,99449.80
2019-01-17T15:42:49.336Z,99447.66
2019-01-17T15:45:18.236Z,99451.95
2019-01-17T15:47:47.249Z,99457.55
2019-01-17T15:50:16.321Z,99464.42
2019-01-17T15:52:45.047Z,99474.76
2019-01-17T15:55:15.334Z,99466.14
2019-01-17T15:57:44.326Z,99492.37
2019-01-17T16:00:16.944Z,99492.73
2019-01-17T16:02:45.735Z,99487.98
2019-01-17T16:05:19.599Z,99487.05
2019-01-17T16:07:48.901Z,99497.34
2019-01-17T16:10:17.717Z,99504.64
2019-01-17T16:12:46.870Z,99496.87
2019-01-17T16:15:18.018Z,99502.07
2019-01-17T16:17:47.239Z,99502.49
2019-01-17T16:20:16.532Z,99505.83
2019-01-17T16:22:46.178Z,99507.55
2019-01-17T16:25:15.859Z,99507.16
2019-01-17T16:27:44.560Z,99499.44
2019-01-17T16:30:16.601Z,99519.61
2019-01-17T16:32:45.606Z,99520.03
2019-01-17T16:35:14.289Z,99518.70
2019-01-17T16:37:43.480Z,99519.98
2019-01-17T16:40:12.255Z,99520.03
2019-01-17T16:42:41.243Z,99521.32
2019-01-17T16:45:11.623Z,99528.63
2019-01-17T16:47:40.304Z,99524.34
2019-01-17T16:50:19.759Z,99535.98
2019-01-17T16:52:48.401Z,99523.55
2019-01-17T16:55:17.805Z,99528.30
2019-01-17T16:57:49.183Z,99519.29
2019-01-17T17:00:29.408Z,99526.55
2019-01-17T17:02:58.405Z,99539.05
2019-01-17T17:05:27.170Z,99549.66
2019-01-17T17:08:00.458Z,99548.99
2019-01-17T17:10:29.580Z,99558.84
2019-01-17T17:12:58.578Z,99564.70
2019-01-17T17:15:27.524Z,99564.16
2019-01-17T17:17:56.767Z,99577.52
2019-01-17T17:20:25.972Z,99588.98
2019-01-17T17:22:54.962Z,99591.05
2019-01-17T17:25:24.273Z,99597.34
2019-01-17T17:27:55.705Z,99604.09
2019-01-17T17:30:25.934Z,99605.68
2019-01-17T17:32:54.694Z,99613.94
2019-01-17T17:35:23.387Z,99615.17
2019-01-17T17:37:52.330Z,99617.72
2019-01-17T17:40:29.488Z,99613.31
2019-01-17T17:42:58.696Z,99620.66
2019-01-17T17:45:28.462Z,99622.34
2019-01-17T17:47:59.241Z,99626.72
2019-01-17T17:50:28.232Z,99632.64
2019-01-17T17:52:57.224Z,99638.16
2019-01-17T17:55:26.096Z,99639.90
2019-01-17T17:57:55.010Z,99649.28
2019-01-17T18:00:42.248Z,99653.48
2019-01-17T18:03:10.929Z,99652.55
2019-01-17T18:05:39.825Z,99671.64
2019-01-17T18:08:09.145Z,99676.24
2019-01-17T18:10:38.292Z,99687.64
2019-01-17T18:13:07.106Z,99693.86
2019-01-17T18:15:36.304Z,99692.52
2019-01-17T18:18:05.922Z,99720.72
2019-01-17T18:20:34.958Z,99721.06
2019-01-17T18:23:03.685Z,99724.02
2019-01-17T18:25:32.678Z,99729.08
2019-01-17T18:28:02.011Z,99734.73
2019-01-17T18:30:31.073Z,99747.48
2019-01-17T18:32:59.964Z,99749.55
2019-01-17T18:35:28.957Z,99755.36
2019-01-17T18:37:57.955Z,99744.31
2019-01-17T18:40:27.047Z,99749.30
2019-01-17T18:42:55.770Z,99758.09
2019-01-17T18:45:24.655Z,99756.22
2019-01-17T18:47:53.662Z,99764.13
2019-01-17T18:50:27.637Z,99763.29
2019-01-17T18:52:56.679Z,99776.73
2019-01-17T18:55:25.364Z,99777.26
2019-01-17T18:57:54.414Z,99771.76
2019-01-17T19:00:25.869Z,99775.24
2019-01-17T19:02:54.614Z,99777.91
2019-01-17T19:05:23.220Z,99784.64
2019-01-17T19:07:52.276Z,99784.16
2019-01-17T19:10:21.730Z,99787.52
2019-01-17T19:12:50.609Z,99805.42
2019-01-17T19:15:22.384Z,99817.95
2019-01-17T19:17:51.449Z,99817.37
2019-01-17T19:20:20.717Z,99831.62
2019-01-17T19:22:49.874Z,99841.04
2019-01-17T19:25:18.691Z,99848.17
2019-01-17T19:27:47.386Z,99847.86
2019-01-17T19:30:18.561Z,99849.25
2019-01-17T19:32:47.292Z,99848.52
2019-01-17T19:35:16.273Z,99853.64
2019-01-17T19:37:45.373Z,99869.48
2019-01-17T19:40:16.932Z,99871.45
2019-01-17T19:42:45.686Z,99883.11
2019-01-17T19:45:15.033Z,99877.55
2019-01-17T19:47:44.112Z,99886.59
2019-01-17T19:50:19.581Z,99879.57
2019-01-17T19:52:48.302Z,99895.41
2019-01-17T19:55:17.344Z,99898.45
2019-01-17T19:57:46.052Z,99910.88
2019-01-17T20:00:15.752Z,99916.66
2019-01-17T20:02:44.762Z,99924.91
2019-01-17T20:05:14.845Z,99919.25
2019-01-17T20:07:43.841Z,99939.66
2019-01-17T20:10:15.710Z,99941.36
2019-01-17T20:12:45.136Z,99950.48
2019-01-17T20:15:13.891Z,99966.05
2019-01-17T20:17:42.901Z,99969.24
2019-01-17T20:20:12.851Z,99974.38
2019-01-17T20:22:41.848Z,99979.48
2019-01-17T20:25:10.642Z,99983.36
2019-01-17T20:27:39.685Z,99990.50
2019-01-17T20:30:13.035Z,99996.20
2019-01-17T20:32:41.693Z,100005.62
2019-01-17T20:35:10.764Z,100005.72
2019-01-17T20:37:39.761Z,100015.94
2019-01-17T20:40:10.288Z,100026.55
2019-01-17T20:42:39.433Z,100041.09
2019-01-17T20:45:10.138Z,100031.29
2019-01-17T20:47:38.869Z,100050.89
2019-01-17T20:50:10.946Z,100056.41
2019-01-17T20:52:40.056Z,100053.18
2019-01-17T20:55:09.721Z,100066.61
2019-01-17T20:57:38.741Z,100069.86
2019-01-17T21:00:13.277Z,100083.50
2019-01-17T21:02:42.269Z,100078.64
2019-01-17T21:05:11.504Z,100091.37
2019-01-17T21:07:40.120Z,100101.36
2019-01-17T21:10:10.685Z,100095.41
2019-01-17T21:12:42.801Z,100101.81
2019-01-17T21:15:12.266Z,100105.36
2019-01-17T21:17:43.271Z,100120.77
2019-01-17T21:20:14.783Z,100119.06
2019-01-17T21:22:45.502Z,100121.67
2019-01-17T21:25:16.444Z,100127.55
2019-01-17T21:27:47.107Z,100128.52
2019-01-17T21:30:18.500Z,100139.87
2019-01-17T21:32:50.492Z,100144.20
2019-01-17T21:35:19.692Z,100153.13
2019-01-17T21:37:50.080Z,100159.69
2019-01-17T21:40:20.061Z,100174.53
2019-01-17T21:42:50.898Z,100174.16
2019-01-17T21:45:19.630Z,100182.67
2019-01-17T21:47:48.435Z,100173.13
2019-01-17T21:50:22.868Z,100197.52
2019-01-17T21:52:51.955Z,100203.92
2019-01-17T21:55:22.492Z,100209.87
2019-01-17T21:57:53.804Z,100211.56
2019-01-17T22:00:24.234Z,100213.34
2019-01-17T22:02:53.364Z,100224.05
2019-01-17T22:05:22.473Z,100230.66
2019-01-17T22:07:53.275Z,100231.40
2019-01-17T22:10:22.400Z,100240.52
2019-01-17T22:12:53.027Z,100247.23
2019-01-17T22:15:23.595Z,100246.92
2019-01-17T22:17:52.648Z,100260.04
2019-01-17T22:20:21.398Z,100263.80
2019-01-17T22:22:52.474Z,100268.43
2019-01-17T22:25:21.201Z,100262.81
2019-01-17T22:27:53.345Z,100266.58
2019-01-17T22:30:24.284Z,100274.02
2019-01-17T22:32:56.044Z,100285.91
2019-01-17T22:35:25.030Z,100291.48
2019-01-17T22:37:54.035Z,100299.47
2019-01-17T22:40:23.232Z,100292.65
2019-01-17T22:42:51.864Z,100297.77
2019-01-17T22:45:23.768Z,100318.63
2019-01-17T22:47:52.811Z,100315.94
2019-01-17T22:50:21.465Z,100327.05
2019-01-17T22:52:50.548Z,100326.55
2019-01-17T22:55:20.766Z,100333.37
2019-01-17T22:57:49.561Z,100338.37
2019-01-17T23:00:24.142Z,100335.16
2019-01-17T23:02:52.789Z,100351.91
2019-01-17T23:05:21.423Z,100365.63
2019-01-17T23:07:51.983Z,100363.48
2019-01-17T23:10:21.473Z,100366.45
2019-01-17T23:12:50.192Z,100374.77
2019-01-17T23:15:19.473Z,100387.70
2019-01-17T23:17:49.418Z,100381.72
2019-01-17T23:20:21.916Z,100385.51
2019-01-17T23:22:52.370Z,100390.81
2019-01-17T23:25:21.370Z,100401.82
2019-01-17T23:27:51.845Z,100402.23
2019-01-17T23:30:20.933Z,100420.36
2019-01-17T23:32:49.552Z,100417.61
2019-01-17T23:35:22.484Z,100428.16
2019-01-17T23:37:51.149Z,100431.38
2019-01-17T23:40:21.088Z,100434.73
2019-01-17T23:42:49.976Z,100447.31
2019-01-17T23:45:18.695Z,100453.19
2019-01-17T23:47:47.653Z,100462.55
2019-01-17T23:50:17.065Z,100467.53
2019-01-17T23:52:46.051Z,100468.89
2019-01-17T23:55:15.357Z,100476.98
2019-01-17T23:57:44.247Z,100477.30
